Stolt Spray — ZCSQ9 — position and weather

sailwx.info

Track history (hours):
 
Tides and Currents Weather Stations Pressure Air Temp Water Temp Dewpoint Dewpoint Depression Visibility Wind Speed Wind Dir Waves Ship Positions

Stolt Spray

Last reported at 2016-Oct-14 23:33 UTC. Time now 2016-Dec-03 04:41 UTC.
Position N 36°18' E 014°38'.
Warning: this ship's position is 49 days out of date.

Length 163 m; draft 10.2 m.

Type: Ship. MMSI: 319591000.

Date/timePositionNaut miles runAvg speedWind from/ knotsBaromVisibWave heightAir tempDewpointWater temp
2016-Oct-14 23:33N 36°18' E 014°38'6713.5
2016-Oct-14 18:33N 36°38' E 013°17'1313.4
2016-Oct-14 17:33N 36°43' E 013°02'1313.5
2016-Oct-14 16:33N 36°47' E 012°46'1413.8
2016-Oct-14 15:33N 36°51' E 012°29'1413.5
2016-Oct-14 14:33N 36°55' E 012°13'1313.0
2016-Oct-14 13:33N 37°00' E 011°58'2912.6
2016-Oct-14 11:15N 37°14' E 011°26'911.7
2016-Oct-14 10:27N 37°19' E 011°16'  
2016-Oct-12 03:18N 36°01' W 005°07'29412.3
2016-Oct-11 03:21N 38°47' W 010°11'1215.2
2016-Oct-11 02:33N 38°59' W 010°11'1515.1
2016-Oct-11 01:33N 39°14' W 010°11'  
2016-Oct-08 13:33N 50°26' W 000°13'5312.9
2016-Oct-08 09:26N 50°48' E 001°04'2714.4
2016-Oct-08 07:33N 51°06' E 001°35'1313.1
2016-Oct-08 06:33N 51°16' E 001°49'20512.8
2016-Oct-07 14:33N 54°05' E 005°00'2713.4
2016-Oct-07 12:33N 54°09' E 005°46'4412.9
2016-Oct-07 09:09N 54°12' E 007°01'3513.6
2016-Oct-07 06:33N 54°03' E 007°59'3913.0
2016-Oct-07 03:33N 53°52' E 009°02'10 9.8
2016-Oct-07 02:34N 53°51' E 009°19'1111.2
2016-Oct-07 01:34N 53°42' E 009°30'3 1.6
2016-Oct-06 23:33N 53°39' E 009°31'0 0.0
2016-Oct-06 22:30N 53°39' E 009°31'0 0.0
2016-Oct-06 21:33N 53°39' E 009°31'0 0.0
2016-Oct-06 20:33N 53°39' E 009°31'0 0.0
2016-Oct-06 19:33N 53°39' E 009°31'0 0.0
2016-Oct-06 15:33N 53°39' E 009°31'0 0.0
2016-Oct-06 14:33N 53°39' E 009°31'0 0.0
2016-Oct-06 10:33N 53°39' E 009°31'0 0.0
2016-Oct-06 04:33N 53°39' E 009°31'0 0.0
2016-Oct-06 03:33N 53°39' E 009°31'0 0.0
2016-Oct-06 02:33N 53°39' E 009°31'0 0.0
2016-Oct-06 01:33N 53°39' E 009°31'0 0.0
2016-Oct-06 00:33N 53°39' E 009°31'0 0.0
2016-Oct-05 23:33N 53°39' E 009°31'0 0.0
2016-Oct-05 20:33N 53°39' E 009°31'0 0.0
2016-Oct-05 19:33N 53°39' E 009°31'0 0.0
2016-Oct-05 17:33N 53°39' E 009°31'0 0.0
2016-Oct-05 13:33N 53°39' E 009°31'0 0.0
2016-Oct-05 10:33N 53°39' E 009°31'0 0.0
2016-Oct-05 09:33N 53°39' E 009°31'0 0.0
2016-Oct-05 08:30N 53°39' E 009°31'0 0.0
2016-Oct-05 07:33N 53°39' E 009°31'5 0.9
2016-Oct-05 01:34N 53°44' E 009°27'1414.3
2016-Oct-05 00:33N 53°53' E 009°08'  
Track history (hours):
 
Tides and Currents Weather Stations Pressure Air Temp Water Temp Dewpoint Dewpoint Depression Visibility Wind Speed Wind Dir Waves Ship Positions

Stolt Spray

Last reported at 2016-Oct-14 23:33 UTC. Time now 2016-Dec-03 04:41 UTC.
Position N 36°18' E 014°38'.
Warning: this ship's position is 49 days out of date.

Length 163 m; draft 10.2 m.

Type: Ship. MMSI: 319591000.

Date/timePositionNaut miles runAvg speedWind from/ knotsBaromVisibWave heightAir tempDewpointWater temp
2016-Oct-14 23:33N 36°18' E 014°38'6713.5
2016-Oct-14 18:33N 36°38' E 013°17'1313.4
2016-Oct-14 17:33N 36°43' E 013°02'1313.5
2016-Oct-14 16:33N 36°47' E 012°46'1413.8
2016-Oct-14 15:33N 36°51' E 012°29'1413.5
2016-Oct-14 14:33N 36°55' E 012°13'1313.0
2016-Oct-14 13:33N 37°00' E 011°58'2912.6
2016-Oct-14 11:15N 37°14' E 011°26'911.7
2016-Oct-14 10:27N 37°19' E 011°16'  
2016-Oct-12 03:18N 36°01' W 005°07'29412.3
2016-Oct-11 03:21N 38°47' W 010°11'1215.2
2016-Oct-11 02:33N 38°59' W 010°11'1515.1
2016-Oct-11 01:33N 39°14' W 010°11'  
2016-Oct-08 13:33N 50°26' W 000°13'5312.9
2016-Oct-08 09:26N 50°48' E 001°04'2714.4
2016-Oct-08 07:33N 51°06' E 001°35'1313.1
2016-Oct-08 06:33N 51°16' E 001°49'20512.8
2016-Oct-07 14:33N 54°05' E 005°00'2713.4
2016-Oct-07 12:33N 54°09' E 005°46'4412.9
2016-Oct-07 09:09N 54°12' E 007°01'3513.6
2016-Oct-07 06:33N 54°03' E 007°59'3913.0
2016-Oct-07 03:33N 53°52' E 009°02'10 9.8
2016-Oct-07 02:34N 53°51' E 009°19'1111.2
2016-Oct-07 01:34N 53°42' E 009°30'3 1.6
2016-Oct-06 23:33N 53°39' E 009°31'0 0.0
2016-Oct-06 22:30N 53°39' E 009°31'0 0.0
2016-Oct-06 21:33N 53°39' E 009°31'0 0.0
2016-Oct-06 20:33N 53°39' E 009°31'0 0.0
2016-Oct-06 19:33N 53°39' E 009°31'0 0.0
2016-Oct-06 15:33N 53°39' E 009°31'0 0.0
2016-Oct-06 14:33N 53°39' E 009°31'0 0.0
2016-Oct-06 10:33N 53°39' E 009°31'0 0.0
2016-Oct-06 04:33N 53°39' E 009°31'0 0.0
2016-Oct-06 03:33N 53°39' E 009°31'0 0.0
2016-Oct-06 02:33N 53°39' E 009°31'0 0.0
2016-Oct-06 01:33N 53°39' E 009°31'0 0.0
2016-Oct-06 00:33N 53°39' E 009°31'0 0.0
2016-Oct-05 23:33N 53°39' E 009°31'0 0.0
2016-Oct-05 20:33N 53°39' E 009°31'0 0.0
2016-Oct-05 19:33N 53°39' E 009°31'0 0.0
2016-Oct-05 17:33N 53°39' E 009°31'0 0.0
2016-Oct-05 13:33N 53°39' E 009°31'0 0.0
2016-Oct-05 10:33N 53°39' E 009°31'0 0.0
2016-Oct-05 09:33N 53°39' E 009°31'0 0.0
2016-Oct-05 08:30N 53°39' E 009°31'0 0.0
2016-Oct-05 07:33N 53°39' E 009°31'5 0.9
2016-Oct-05 01:34N 53°44' E 009°27'1414.3
2016-Oct-05 00:33N 53°53' E 009°08'  

Dump ship's entire track history